Aero Club Salland

EHDS · Overissel, Países Baixos

História da METAR EHDS · Aero Club Salland

Abaixo você vê METARs dos últimos dias. Selecione um ano para navegar pelos METARs mais antigos, a partir do ano 2007.

3 de dezembro de 2022

Hora Código Clima Temp. Visibilidade Tecto Vento METAR/SPECI
22:55
V
0 °C 9 km - 070° 070° 9 kt METAR EHLE 032155Z AUTO 07009KT 030V100 9000 NSC M00/M03 Q1019
22:25
V
0 °C 9 km - 070° 070° 8 kt METAR EHLE 032125Z AUTO 07008KT 9000 NSC M00/M03 Q1020
21:55
V
0 °C 10 km+ - 080° 080° 8 kt METAR EHLE 032055Z AUTO 08008KT 040V120 9999 NSC 00/M03 Q1020
21:25
V
0 °C 10 km+ - 070° 070° 10 kt METAR EHLE 032025Z AUTO 07010KT 040V100 9999 NSC 00/M03 Q1020 NOSIG
20:55
V
0 °C 10 km+ - 080° 080° 10 kt METAR EHLE 031955Z AUTO 08010KT 050V110 9999 NSC 00/M03 Q1020 NOSIG
20:25
V
0 °C 10 km+ - 070° 070° 9 kt METAR EHLE 031925Z AUTO 07009KT 040V100 9999 NSC 00/M03 Q1020 NOSIG
19:55
V
0 °C 9 km - 080° 080° 8 kt METAR EHLE 031855Z AUTO 08008KT 040V110 9000 NSC 00/M03 Q1020 NOSIG
19:25
M
0 °C 8 km 1.600 ft 070° 070° 7 kt METAR EHLE 031825Z AUTO 07007KT 040V100 8000 BKN016 00/M02 Q1020 NOSIG
18:55
M
0 °C 7 km 1.600 ft 080° 080° 8 kt METAR EHLE 031755Z AUTO 08008KT 050V110 7000 FEW014 OVC016 00/M02 Q1020 NOSIG
18:25
M
0 °C 9 km 1.500 ft 080° 080° 8 kt METAR EHLE 031725Z AUTO 08008KT 9000 OVC015 00/M02 Q1020 NOSIG
17:55
M
0 °C 9 km 1.700 ft 080° 080° 10 kt METAR EHLE 031655Z AUTO 08010KT 050V110 9000 OVC017 00/M02 Q1020 NOSIG
17:25
M
1 °C 9 km 1.600 ft 080° 080° 10 kt METAR EHLE 031625Z AUTO 08010KT 050V110 9000 OVC016 01/M02 Q1020 NOSIG
16:55
M
1 °C 8 km 1.600 ft 080° 080° 9 kt METAR EHLE 031555Z AUTO 08009KT 040V110 8000 BKN016 OVC020 01/M02 Q1020 NOSIG
16:25
M
1 °C 8 km 1.600 ft 070° 070° 9 kt METAR EHLE 031525Z AUTO 07009KT 040V110 8000 OVC016 01/M02 Q1020 NOSIG
15:55
M
1 °C 10 km+ 1.600 ft 080° 080° 7 kt METAR EHLE 031455Z AUTO 08007KT 030V100 9999 OVC016 01/M02 Q1020 NOSIG
15:25
M
1 °C 10 km+ 1.700 ft 090° 090° 8 kt METAR EHLE 031425Z AUTO 09008KT 060V120 9999 OVC017 01/M02 Q1021 NOSIG
14:55
M
1 °C 10 km+ 1.600 ft 080° 080° 9 kt METAR EHLE 031355Z AUTO 08009KT 050V110 9999 BKN016 OVC020 01/M02 Q1021 NOSIG
14:25
M
1 °C 9 km 1.600 ft 060° 060° 10 kt METAR EHLE 031325Z AUTO 06010KT 040V100 9000 OVC016 01/M01 Q1021 NOSIG
13:55
M
1 °C 9 km 1.600 ft 060° 060° 10 kt METAR EHLE 031255Z AUTO 06010KT 9000 SCT014 BKN016 OVC020 01/M01 Q1021 NOSIG
13:25
M
1 °C 8 km 1.500 ft 070° 070° 10 kt METAR EHLE 031225Z AUTO 07010KT 040V100 8000 OVC015 01/M01 Q1021 NOSIG
12:55
M
1 °C 8 km 1.600 ft 070° 070° 10 kt METAR EHLE 031155Z AUTO 07010KT 030V100 8000 FEW013 OVC016 01/M01 Q1022 NOSIG
12:25
M
1 °C 9 km 1.500 ft 070° 070° 9 kt METAR EHLE 031125Z AUTO 07009KT 040V100 9000 BKN015 OVC018 01/M01 Q1022 NOSIG
11:55
M
1 °C 10 km+ 1.400 ft 070° 070° 10 kt METAR EHLE 031055Z AUTO 07010KT 030V100 9999 OVC014 01/M01 Q1022 NOSIG
11:25
M
2 °C 10 km+ 1.600 ft 070° 070° 10 kt METAR EHLE 031025Z AUTO 07010KT 040V100 9999 OVC016 02/M02 Q1023 NOSIG
10:55
M
2 °C 10 km+ 1.700 ft 070° 070° 11 kt METAR EHLE 030955Z AUTO 07011KT 020V110 9999 BKN017 OVC020 02/M01 Q1023 NOSIG
10:25
V
2 °C 10 km+ - 070° 070° 12 kt METAR EHLE 030925Z AUTO 07012KT 040V120 9999 NSC 02/M01 Q1023 NOSIG
09:55
V
2 °C 10 km+ - 080° 080° 12 kt METAR EHLE 030855Z AUTO 08012KT 050V110 9999 NSC 02/M01 Q1023 NOSIG
09:25
M
2 °C 10 km+ 2.000 ft 080° 080° 11 kt METAR EHLE 030825Z AUTO 08011KT 050V120 9999 SCT016 BKN020 BKN033 02/M00 Q1023 NOSIG
08:55
M
2 °C 10 km+ 1.300 ft 080° 080° 11 kt METAR EHLE 030755Z AUTO 08011KT 040V100 9999 BKN013 OVC019 02/00 Q1023 NOSIG
08:25
M
3 °C 10 km+ 1.400 ft 060° 060° 10 kt METAR EHLE 030725Z AUTO 06010KT 9999 OVC014 03/00 Q1023 NOSIG
07:55
M
3 °C 10 km+ 1.400 ft 060° 060° 11 kt METAR EHLE 030655Z AUTO 06011KT 030V100 9999 OVC014 03/00 Q1023 NOSIG
07:25
M
3 °C 10 km+ 1.500 ft 070° 070° 9 kt METAR EHLE 030625Z AUTO 07009KT 040V100 9999 OVC015 03/00 Q1023 NOSIG
06:55
M
3 °C 10 km+ 1.600 ft 060° 060° 10 kt METAR EHLE 030555Z AUTO 06010KT 9999 BKN016 OVC019 03/00 Q1023
06:25
M
3 °C 10 km+ 1.900 ft 070° 070° 10 kt METAR EHLE 030525Z AUTO 07010KT 9999 SCT016 OVC019 03/00 Q1023
05:55
M
3 °C 10 km+ 1.600 ft 070° 070° 10 kt METAR EHLE 030455Z AUTO 07010KT 9999 BKN016 OVC020 03/00 Q1023
05:25
M
3 °C 10 km+ 1.500 ft 070° 070° 9 kt METAR EHLE 030425Z AUTO 07009KT 9999 BKN015 OVC019 03/01 Q1023
04:55
M
3 °C 10 km+ 1.400 ft 060° 060° 10 kt METAR EHLE 030355Z AUTO 06010KT 020V080 9999 BKN014 OVC016 03/01 Q1023
04:25
M
3 °C 10 km+ 1.500 ft 060° 060° 10 kt METAR EHLE 030325Z AUTO 06010KT 030V100 9999 OVC015 03/01 Q1023
03:55
M
3 °C 9 km 1.800 ft 050° 050° 9 kt METAR EHLE 030255Z AUTO 05009KT 9000 SCT015 OVC018 03/01 Q1024
03:25
M
3 °C 10 km+ 2.300 ft 050° 050° 8 kt METAR EHLE 030225Z AUTO 05008KT 9999 FEW015 OVC023 03/01 Q1024
02:55
M
2 °C 10 km+ 2.200 ft 060° 060° 9 kt METAR EHLE 030155Z AUTO 06009KT 9999 BKN022 02/00 Q1024
02:25
V
2 °C 10 km+ - 060° 060° 10 kt METAR EHLE 030125Z AUTO 06010KT 030V090 9999 NSC 02/M00 Q1024
01:55
V
2 °C 10 km+ - 060° 060° 10 kt METAR EHLE 030055Z AUTO 06010KT 9999 NSC 02/M00 Q1024
01:25
V
2 °C 10 km+ - 050° 050° 10 kt METAR EHLE 030025Z AUTO 05010KT 9999 NSC 02/M00 Q1024
00:55
V
2 °C 10 km+ - 040° 040° 10 kt METAR EHLE 022355Z AUTO 04010KT 9999 SCT020 02/M01 Q1025
00:25
M
2 °C 10 km+ 1.800 ft 050° 050° 10 kt METAR EHLE 022325Z AUTO 05010KT 9999 OVC018 02/M01 Q1025

2 de dezembro de 2022

Hora Código Clima Temp. Visibilidade Tecto Vento METAR/SPECI
23:55
M
2 °C 10 km+ 1.800 ft 060° 060° 10 kt METAR EHLE 022255Z AUTO 06010KT 9999 OVC018 02/M01 Q1025
23:25
M
2 °C 10 km+ 1.800 ft 060° 060° 13 kt METAR EHLE 022225Z AUTO 06013KT 030V100 9999 OVC018 02/M01 Q1025
22:55
M
2 °C 10 km+ 1.900 ft 060° 060° 10 kt METAR EHLE 022155Z AUTO 06010KT 9999 OVC019 02/M01 Q1025
22:25
M
2 °C 9 km 1.600 ft 060° 060° 12 kt METAR EHLE 022125Z AUTO 06012KT 9000 OVC016 02/M01 Q1025
21:55
M
2 °C 10 km+ 1.600 ft 060° 060° 13 kt METAR EHLE 022055Z AUTO 06013KT 9999 OVC016 02/M01 Q1025
21:25
M
2 °C 10 km+ 1.600 ft 060° 060° 12 kt METAR EHLE 022025Z AUTO 06012KT 9999 OVC016 02/M01 Q1025 NOSIG
20:55
M
2 °C 9 km 1.600 ft 060° 060° 11 kt METAR EHLE 021955Z AUTO 06011KT 030V090 9000 FEW014 OVC016 02/M00 Q1025 NOSIG
20:25
M
2 °C 8 km 1.400 ft 060° 060° 11 kt METAR EHLE 021925Z AUTO 06011KT 8000 OVC014 02/M00 Q1025 BECMG OVC016
19:55
M
2 °C 9 km 1.500 ft 070° 070° 10 kt METAR EHLE 021855Z AUTO 07010KT 040V100 9000 OVC015 02/M00 Q1026 NOSIG
19:25
M
2 °C 9 km 1.600 ft 060° 060° 11 kt METAR EHLE 021825Z AUTO 06011KT 040V100 9000 OVC016 02/M00 Q1025 NOSIG
18:55
M
2 °C 9 km 1.500 ft 070° 070° 11 kt METAR EHLE 021755Z AUTO 07011KT 030V100 9000 OVC015 02/M00 Q1025 NOSIG
18:25
M
2 °C 9 km 1.600 ft 060° 060° 11 kt METAR EHLE 021725Z AUTO 06011KT 030V090 9000 BKN016 OVC020 02/M00 Q1025 NOSIG
17:55
M
2 °C 7 km 1.800 ft 060° 060° 10 kt METAR EHLE 021655Z AUTO 06010KT 030V100 7000 OVC018 02/00 Q1025 BECMG FEW013 BKN016
17:25
M
2 °C 6 km 1.200 ft 070° 070° 10 kt METAR EHLE 021625Z AUTO 07010KT 030V100 6000 BKN012 OVC014 02/00 Q1025 BECMG FEW013 BKN016
16:55
M
2 °C 6 km 1.100 ft 060° 060° 12 kt METAR EHLE 021555Z AUTO 06012KT 030V090 6000 BKN011 OVC014 02/00 Q1025 NOSIG
16:25
M
2 °C 6 km 1.200 ft 060° 060° 12 kt METAR EHLE 021525Z AUTO 06012KT 030V090 6000 OVC012 02/00 Q1025 NOSIG
15:55
M
2 °C 7 km 1.200 ft 060° 060° 14 kt METAR EHLE 021455Z AUTO 06014KT 030V090 7000 OVC012 02/00 Q1025 NOSIG
15:25
M
2 °C 8 km 1.200 ft 060° 060° 13 kt METAR EHLE 021425Z AUTO 06013KT 030V090 8000 BKN012 OVC014 02/00 Q1025 NOSIG
14:55
M
2 °C 9 km 1.200 ft 060° 060° 10 kt METAR EHLE 021355Z AUTO 06010KT 9000 SCT010 BKN012 OVC015 02/00 Q1025 NOSIG
14:25
M
2 °C 10 km+ 1.200 ft 070° 070° 11 kt METAR EHLE 021325Z AUTO 07011KT 9999 OVC012 02/00 Q1025 NOSIG
13:55
M
2 °C 10 km+ 2.400 ft 070° 070° 12 kt METAR EHLE 021255Z AUTO 07012KT 040V100 9999 FEW013 OVC024 02/00 Q1025 TEMPO BKN012
13:25
M
2 °C 9 km 1.900 ft 060° 060° 12 kt METAR EHLE 021225Z AUTO 06012KT 9000 SCT015 OVC019 02/00 Q1025 TEMPO BKN012
12:55
M
3 °C 9 km 1.500 ft 060° 060° 11 kt METAR EHLE 021155Z AUTO 06011KT 9000 FEW013 BKN015 OVC019 03/01 Q1025 TEMPO BKN012
12:25
M
3 °C 7 km 1.000 ft 060° 060° 12 kt METAR EHLE 021125Z AUTO 06012KT 7000 OVC010 03/01 Q1025 TEMPO 8000
11:55
M
3 °C 7 km 1.100 ft 060° 060° 12 kt METAR EHLE 021055Z AUTO 06012KT 040V100 7000 OVC011 03/00 Q1025 NOSIG
11:25
M
2 °C 7 km 1.200 ft 060° 060° 14 kt METAR EHLE 021025Z AUTO 06014KT 7000 OVC012 02/00 Q1025 TEMPO BKN015
10:55
M
2 °C 7 km 1.000 ft 060° 060° 11 kt METAR EHLE 020955Z AUTO 06011KT 030V100 7000 OVC010 02/01 Q1025 TEMPO BKN015
10:25
M
2 °C 6 km 1.100 ft 050° 050° 11 kt METAR EHLE 020925Z AUTO 05011KT 6000 SCT009 OVC011 02/01 Q1026 TEMPO SCT010
09:55
M
2 °C 7 km - 050° 050° 9 kt METAR EHLE 020855Z AUTO 05009KT 020V090 7000 FEW010 02/01 Q1026 BECMG 9000
09:25
M
2 °C 7 km - 040° 040° 9 kt METAR EHLE 020825Z AUTO 04009KT 7000 NSC 02/01 Q1026 BECMG 9000
08:55
V
2 °C 9 km - 040° 040° 9 kt METAR EHLE 020755Z AUTO 04009KT 9000 NSC 02/01 Q1025 NOSIG
08:25
V
2 °C 10 km+ - 050° 050° 8 kt METAR EHLE 020725Z AUTO 05008KT 9999 NSC 02/01 Q1025 TEMPO BKN013
07:55
V
2 °C 10 km+ - 050° 050° 10 kt METAR EHLE 020655Z AUTO 05010KT 9999 FEW011 02/01 Q1025 TEMPO BKN013
07:25
M
2 °C 9 km 2.200 ft 060° 060° 8 kt METAR EHLE 020625Z AUTO 06008KT 030V090 9000 BKN022 02/01 Q1025 TEMPO BKN013
06:55
M
3 °C 8 km 1.500 ft 060° 060° 9 kt METAR EHLE 020555Z AUTO 06009KT 8000 OVC015 03/01 Q1025 TEMPO BKN013
06:25
M
3 °C 7 km 1.100 ft 060° 060° 10 kt METAR EHLE 020525Z AUTO 06010KT 7000 BKN011 OVC014 03/01 Q1025
05:55
M
3 °C 7 km 1.800 ft 050° 050° 11 kt METAR EHLE 020455Z AUTO 05011KT 7000 FEW011 OVC018 03/01 Q1025
05:25
M
3 °C 5 km 1.000 ft 050° 050° 9 kt METAR EHLE 020425Z AUTO 05009KT 5000 FEW008 BKN010 OVC016 03/02 Q1025
04:55
M
3 °C 5 km 1.000 ft 050° 050° 9 kt METAR EHLE 020355Z AUTO 05009KT 5000 BR FEW009 BKN010 OVC016 03/02 Q1026
04:25
M
3 °C 5 km 1.400 ft 050° 050° 8 kt METAR EHLE 020325Z AUTO 05008KT 5000 BR OVC014 03/02 Q1026
03:55
M
3 °C 5 km 1.600 ft 040° 040° 7 kt METAR EHLE 020255Z AUTO 04007KT 5000 BR FEW008 SCT013 OVC016 03/02 Q1026
03:25
I
4 °C 6 km 900 ft 030° 030° 9 kt METAR EHLE 020225Z AUTO 03009KT 6000 BR BKN009 OVC010 04/02 Q1026
02:55
M
4 °C 5 km 1.300 ft 060° 060° 6 kt METAR EHLE 020155Z AUTO 06006KT 5000 BR OVC013 04/03 Q1026
02:25
I
4 °C 4,9 km 1.300 ft 060° 060° 5 kt METAR EHLE 020125Z AUTO 06005KT 4900 BR OVC013 04/03 Q1026
01:55
I
4 °C 4,8 km 1.400 ft 060° 060° 6 kt METAR EHLE 020055Z AUTO 06006KT 4800 BR OVC014 04/03 Q1026
01:25
I
4 °C 4,7 km 1.300 ft 060° 060° 6 kt METAR EHLE 020025Z AUTO 06006KT 030V090 4700 BR OVC013 04/03 Q1026
00:55
I
4 °C 4,8 km 1.300 ft 080° 080° 5 kt METAR EHLE 012355Z AUTO 08005KT 040V110 4800 BR OVC013 04/03 Q1027
00:25
I
4 °C 4,8 km 1.200 ft 060° 060° 6 kt METAR EHLE 012325Z AUTO 06006KT 4800 BR BKN012 OVC015 04/03 Q1027

1 de dezembro de 2022

Hora Código Clima Temp. Visibilidade Tecto Vento METAR/SPECI
23:55
I
4 °C 4,3 km 4.900 ft 060° 060° 5 kt METAR EHLE 012255Z AUTO 06005KT 4300 BR OVC049 04/03 Q1027
23:25
I
4 °C 4,4 km 4.500 ft 070° 070° 6 kt METAR EHLE 012225Z AUTO 07006KT 040V100 4400 BR OVC045 04/03 Q1027
22:55
I
4 °C 4,2 km 4.800 ft 060° 060° 6 kt METAR EHLE 012155Z AUTO 06006KT 030V090 4200 BR OVC048 04/03 Q1027
22:25
I
4 °C 4,2 km 1.600 ft 070° 070° 5 kt METAR EHLE 012125Z AUTO 07005KT 4200 BR OVC016 04/04 Q1027 NOSIG
21:55
I
5 °C 4 km 4.400 ft 060° 060° 6 kt METAR EHLE 012055Z AUTO 06006KT 4000 BR FEW012 OVC044 05/04 Q1027 NOSIG
21:25
I
4 °C 4,5 km 800 ft 050° 050° 6 kt METAR EHLE 012025Z AUTO 05006KT 4500 BR BKN008 OVC019 04/04 Q1027 NOSIG
20:55
I
4 °C 4 km 4.500 ft 040° 040° 5 kt METAR EHLE 011955Z AUTO 04005KT 4000 BR OVC045 04/03 Q1027 NOSIG
20:25
M
2 °C 5 km 4.500 ft 040° 040° 5 kt METAR EHLE 011925Z AUTO 04005KT 5000 BR OVC045 02/02 Q1027 NOSIG
19:55
M
2 °C 6 km 4.600 ft 050° 050° 5 kt METAR EHLE 011855Z AUTO 05005KT 6000 BR OVC046 02/01 Q1027 NOSIG
19:25
I
0 °C 4,7 km - 050° 050° 4 kt METAR EHLE 011825Z AUTO 05004KT 4700 BR NSC 00/00 Q1027 NOSIG
18:55
I
1 °C 3,5 km - 040° 040° 3 kt METAR EHLE 011755Z AUTO 04003KT 3500 BR NCD 01/01 Q1027 NOSIG
18:25
M
2 °C 5 km - 020° 020° 2 kt METAR EHLE 011725Z AUTO 02002KT 5000 NCD 02/02 Q1027 NOSIG
17:55
M
3 °C 6 km - 350° 350° 2 kt METAR EHLE 011655Z AUTO 35002KT 6000 NSC 03/03 Q1027 NOSIG
17:25
V
4 °C 9 km - 040° 040° 3 kt METAR EHLE 011625Z AUTO 04003KT 9000 NCD 04/03 Q1027 NOSIG
16:55
V
4 °C 9 km - 020° 020° 3 kt METAR EHLE 011555Z AUTO 02003KT 9000 NCD 04/03 Q1027 NOSIG
16:25
V
4 °C 10 km+ - 010° 010° 5 kt METAR EHLE 011525Z AUTO 01005KT 9999 NCD 04/03 Q1027 NOSIG
15:55
V
6 °C 10 km+ - 350° 350° 5 kt METAR EHLE 011455Z AUTO 35005KT 9999 NCD 06/04 Q1027 NOSIG
15:25
V
6 °C 10 km+ - 010° 010° 6 kt METAR EHLE 011425Z AUTO 01006KT 340V040 9999 FEW019 06/03 Q1027 NOSIG
14:55
V
7 °C 10 km+ - 020° 020° 5 kt METAR EHLE 011355Z AUTO 02005KT 9999 NCD 07/04 Q1027 NOSIG
14:25
V
7 °C 8 km - 040° 040° 5 kt METAR EHLE 011325Z AUTO 04005KT 8000 FEW016 07/05 Q1028 NOSIG
13:55
V
7 °C 8 km - 060° 060° 6 kt METAR EHLE 011255Z AUTO 06006KT 8000 FEW016 07/05 Q1028 NOSIG
13:25
M
7 °C 7 km - 050° 050° 7 kt METAR EHLE 011225Z AUTO 05007KT 7000 FEW010 07/05 Q1028 NOSIG
12:55
M
6 °C 6 km - 050° 050° 6 kt METAR EHLE 011155Z AUTO 05006KT 6000 NCD 06/05 Q1028 NOSIG
12:25
M
7 °C 5 km 1.000 ft 040° 040° 6 kt METAR EHLE 011125Z AUTO 04006KT 5000 BKN010 BKN013 07/05 Q1028 NOSIG
11:55
M
6 °C 5 km - 040° 040° 5 kt METAR EHLE 011055Z AUTO 04005KT 5000 FEW011 06/05 Q1028 NOSIG
11:25
M
7 °C 5 km - 040° 040° 5 kt METAR EHLE 011025Z AUTO 04005KT 5000 BR NCD 07/05 Q1028 NOSIG
10:55
M
6 °C 5 km - 020° 020° 4 kt METAR EHLE 010955Z AUTO 02004KT 350V050 5000 BR NCD 06/05 Q1029 NOSIG

Nós e terceiros acompanhamos seu comportamento na internet em nosso site com cookies. Se você continuar, nós assumimos que você concorda com nosso política de cookies.